createdAt,value
2017-08-02T00:02:28.848Z,4.00
2017-08-02T00:04:58.482Z,4.50
2017-08-02T00:07:28.349Z,5.00
2017-08-02T00:09:59.125Z,4.82
2017-08-02T00:12:29.739Z,5.00
2017-08-02T00:14:59.961Z,4.90
2017-08-02T00:17:29.643Z,4.75
2017-08-02T00:20:00.859Z,4.90
2017-08-02T00:22:30.682Z,5.20
2017-08-02T00:25:00.639Z,4.90
2017-08-02T00:27:30.544Z,4.65
2017-08-02T00:30:00.435Z,4.70
2017-08-02T00:32:30.822Z,4.47
2017-08-02T00:35:01.215Z,4.75
2017-08-02T00:37:31.044Z,4.53
2017-08-02T00:40:00.903Z,4.50
2017-08-02T00:42:30.815Z,5.12
2017-08-02T00:45:00.709Z,4.68
2017-08-02T00:47:31.218Z,5.87
2017-08-02T00:50:01.175Z,4.43
2017-08-02T00:52:31.500Z,5.00
2017-08-02T00:55:01.159Z,5.10
2017-08-02T00:57:30.859Z,4.68
2017-08-02T01:00:00.721Z,5.18
2017-08-02T01:02:30.594Z,4.80
2017-08-02T01:05:01.079Z,4.53
2017-08-02T01:07:31.190Z,5.10
2017-08-02T01:10:01.151Z,4.90
2017-08-02T01:12:31.223Z,4.62
2017-08-02T01:15:01.586Z,4.80
2017-08-02T01:17:32.750Z,5.67
2017-08-02T01:20:02.321Z,5.10
2017-08-02T01:22:32.326Z,4.80
2017-08-02T01:25:02.507Z,5.12
2017-08-02T01:27:32.026Z,4.95
2017-08-02T01:30:01.612Z,4.90
2017-08-02T01:32:31.400Z,5.20
2017-08-02T01:35:00.939Z,4.70
2017-08-02T01:37:30.446Z,5.15
2017-08-02T01:40:00.437Z,5.15
2017-08-02T01:42:30.279Z,5.30
2017-08-02T01:45:00.627Z,4.43
2017-08-02T01:47:30.531Z,5.10
2017-08-02T01:50:00.701Z,4.90
2017-08-02T01:52:30.686Z,5.30
2017-08-02T01:55:00.653Z,5.30
2017-08-02T01:57:31.083Z,5.05
2017-08-02T02:00:01.102Z,5.40
2017-08-02T02:02:30.704Z,5.17
2017-08-02T02:05:00.599Z,5.47
2017-08-02T02:07:30.598Z,4.80
2017-08-02T02:10:00.563Z,5.55
2017-08-02T02:12:30.667Z,5.20
2017-08-02T02:15:00.799Z,5.07
2017-08-02T02:17:31.330Z,4.82
2017-08-02T02:20:01.106Z,4.70
2017-08-02T02:22:30.760Z,4.45
2017-08-02T02:25:01.180Z,4.80
2017-08-02T02:27:30.957Z,4.80
2017-08-02T02:30:00.702Z,5.10
2017-08-02T02:32:30.203Z,5.55
2017-08-02T02:35:00.123Z,4.93
2017-08-02T02:37:30.345Z,5.40
2017-08-02T02:40:00.313Z,4.93
2017-08-02T02:42:30.279Z,5.28
2017-08-02T02:45:00.730Z,5.43
2017-08-02T02:47:30.716Z,5.53
2017-08-02T02:50:00.378Z,5.10
2017-08-02T02:52:30.159Z,5.00
2017-08-02T02:54:59.861Z,5.10
2017-08-02T02:57:30.130Z,5.10
2017-08-02T03:00:00.326Z,5.28
2017-08-02T03:02:30.103Z,5.20
2017-08-02T03:05:00.542Z,5.33
2017-08-02T03:07:30.395Z,4.78
2017-08-02T03:10:00.259Z,5.62
2017-08-02T03:12:30.063Z,6.23
2017-08-02T03:15:00.791Z,5.68
2017-08-02T03:17:31.918Z,6.40
2017-08-02T03:20:02.860Z,5.90
2017-08-02T03:22:32.749Z,5.70
2017-08-02T03:25:03.309Z,6.00
2017-08-02T03:27:33.396Z,5.10
2017-08-02T03:30:03.408Z,5.07
2017-08-02T03:32:33.636Z,5.47
2017-08-02T03:35:03.780Z,5.10
2017-08-02T03:37:34.326Z,5.12
2017-08-02T03:40:04.270Z,5.60
2017-08-02T03:42:34.182Z,5.47
2017-08-02T03:45:04.675Z,5.80
2017-08-02T03:47:34.379Z,5.78
2017-08-02T03:50:03.935Z,5.40
2017-08-02T03:52:33.455Z,6.30
2017-08-02T03:55:02.995Z,6.93
2017-08-02T03:57:32.871Z,6.20
2017-08-02T04:00:03.164Z,6.50
2017-08-02T04:02:32.729Z,6.37
2017-08-02T04:05:02.307Z,6.60
2017-08-02T04:07:32.479Z,6.90
2017-08-02T04:10:02.731Z,6.25
2017-08-02T04:12:32.467Z,6.30
2017-08-02T04:15:02.027Z,5.47
2017-08-02T04:17:31.902Z,5.65
2017-08-02T04:20:01.455Z,6.00
2017-08-02T04:22:31.039Z,6.10
2017-08-02T04:25:00.562Z,6.25
2017-08-02T04:27:30.111Z,6.03
2017-08-02T04:30:00.386Z,5.80
2017-08-02T04:32:30.310Z,5.37
2017-08-02T04:35:00.066Z,5.70
2017-08-02T04:37:29.614Z,5.90
2017-08-02T04:39:59.191Z,5.72
2017-08-02T04:42:29.106Z,5.68
2017-08-02T04:44:59.010Z,5.63
2017-08-02T04:47:28.604Z,5.87
2017-08-02T04:49:58.442Z,6.00
2017-08-02T04:52:27.999Z,6.10
2017-08-02T04:54:57.539Z,6.20
2017-08-02T04:57:27.054Z,5.90
2017-08-02T04:59:56.581Z,5.37
2017-08-02T05:02:27.063Z,5.80
2017-08-02T05:04:56.852Z,5.65
2017-08-02T05:07:26.447Z,5.70
2017-08-02T05:09:56.803Z,5.43
2017-08-02T05:12:26.671Z,5.40
2017-08-02T05:14:56.575Z,5.43
2017-08-02T05:17:26.498Z,5.60
2017-08-02T05:19:56.215Z,5.50
2017-08-02T05:22:26.667Z,5.75
2017-08-02T05:24:56.918Z,5.10
2017-08-02T05:27:26.535Z,5.50
2017-08-02T05:29:56.254Z,5.57
2017-08-02T05:32:25.872Z,5.82
2017-08-02T05:34:55.764Z,5.70
2017-08-02T05:37:27.145Z,5.80
2017-08-02T05:39:56.794Z,5.83
2017-08-02T05:42:27.646Z,5.50
2017-08-02T05:44:57.224Z,5.30
2017-08-02T05:47:26.739Z,5.28
2017-08-02T05:49:57.542Z,5.43
2017-08-02T05:52:41.751Z,5.75
2017-08-02T05:55:12.054Z,5.35
2017-08-02T05:57:41.897Z,5.47
2017-08-02T06:00:11.877Z,6.28
2017-08-02T06:02:41.695Z,5.50
2017-08-02T06:05:11.903Z,5.57
2017-08-02T06:07:51.518Z,5.40
2017-08-02T06:11:50.707Z,5.37
2017-08-02T06:14:20.664Z,5.37
2017-08-02T06:16:50.312Z,4.80
2017-08-02T06:19:19.884Z,6.00
2017-08-02T06:21:49.648Z,6.20
2017-08-02T06:24:19.214Z,5.20
2017-08-02T06:26:52.652Z,5.25
2017-08-02T06:29:22.283Z,5.00
2017-08-02T06:31:51.911Z,5.15
2017-08-02T06:34:21.427Z,5.22
2017-08-02T06:36:51.068Z,5.60
2017-08-02T06:39:20.895Z,5.30
2017-08-02T06:41:50.431Z,4.32
2017-08-02T06:44:20.597Z,4.57
2017-08-02T06:46:53.289Z,4.87
2017-08-02T06:49:23.726Z,4.20
2017-08-02T06:51:53.330Z,3.55
2017-08-02T06:54:23.050Z,3.60
2017-08-02T06:56:53.303Z,3.47
2017-08-02T06:59:23.566Z,3.67
2017-08-02T07:01:53.252Z,3.80
2017-08-02T07:04:23.232Z,3.70
2017-08-02T07:06:53.018Z,4.17
2017-08-02T07:09:23.232Z,4.25
2017-08-02T07:11:55.546Z,3.60
2017-08-02T07:14:25.289Z,3.95
2017-08-02T07:16:54.859Z,4.15
2017-08-02T07:19:24.658Z,3.80
2017-08-02T07:21:54.279Z,3.65
2017-08-02T07:24:23.906Z,4.50
2017-08-02T07:26:53.854Z,4.20
2017-08-02T07:29:23.615Z,4.20
2017-08-02T07:31:53.552Z,4.30
2017-08-02T07:34:24.005Z,3.75
2017-08-02T07:36:53.976Z,3.77
2017-08-02T07:39:24.074Z,3.40
2017-08-02T07:41:53.871Z,4.50
2017-08-02T07:44:23.792Z,4.20
2017-08-02T07:46:53.444Z,4.00
2017-08-02T07:49:22.990Z,3.37
2017-08-02T07:51:52.819Z,3.65
2017-08-02T07:54:28.649Z,3.83
2017-08-02T07:56:58.302Z,3.90
2017-08-02T07:59:27.867Z,3.80
2017-08-02T08:01:57.919Z,3.62
2017-08-02T08:04:28.362Z,3.40
2017-08-02T08:06:58.628Z,3.40
2017-08-02T08:09:28.180Z,3.17
2017-08-02T08:11:58.195Z,2.87
2017-08-02T08:14:27.863Z,3.00
2017-08-02T08:16:57.391Z,3.22
2017-08-02T08:19:27.182Z,3.00
2017-08-02T08:21:56.824Z,3.67
2017-08-02T08:24:26.388Z,3.53
2017-08-02T08:26:55.961Z,3.10
2017-08-02T08:29:25.513Z,3.55
2017-08-02T08:32:05.053Z,3.17
2017-08-02T08:34:34.753Z,3.80
2017-08-02T08:37:04.732Z,3.67
2017-08-02T08:39:36.018Z,3.83
2017-08-02T08:42:20.604Z,3.10
2017-08-02T08:44:51.015Z,3.50
2017-08-02T08:47:20.798Z,3.70
2017-08-02T08:49:51.197Z,3.40
2017-08-02T08:52:21.251Z,3.60
2017-08-02T08:54:50.996Z,3.62
2017-08-02T08:57:20.666Z,4.10
2017-08-02T08:59:50.487Z,4.30
2017-08-02T09:02:20.027Z,4.28
2017-08-02T09:04:50.296Z,4.50
2017-08-02T09:07:20.142Z,4.00
2017-08-02T09:09:50.169Z,4.20
2017-08-02T09:12:19.995Z,3.70
2017-08-02T09:14:50.012Z,4.50
2017-08-02T09:17:19.635Z,4.20
2017-08-02T09:19:49.278Z,3.90
2017-08-02T09:22:19.019Z,3.80
2017-08-02T09:24:50.264Z,4.30
2017-08-02T09:27:20.019Z,4.18
2017-08-02T09:29:49.883Z,3.70
2017-08-02T09:32:20.068Z,4.15
2017-08-02T09:34:49.770Z,4.10
2017-08-02T09:37:19.883Z,4.10
2017-08-02T09:39:49.598Z,4.20
2017-08-02T09:42:19.278Z,4.07
2017-08-02T09:44:49.240Z,4.05
2017-08-02T09:47:20.631Z,3.70
2017-08-02T09:49:50.259Z,3.90
2017-08-02T09:52:20.119Z,3.78
2017-08-02T09:54:49.647Z,4.00
2017-08-02T09:57:19.648Z,3.80
2017-08-02T09:59:49.945Z,4.28
2017-08-02T10:02:19.760Z,4.47
2017-08-02T10:07:27.983Z,3.97
2017-08-02T10:09:57.902Z,4.20
2017-08-02T10:12:27.424Z,3.93
2017-08-02T10:14:57.012Z,3.87
2017-08-02T10:17:27.476Z,4.25
2017-08-02T10:19:57.134Z,3.80
2017-08-02T10:22:27.053Z,3.67
2017-08-02T10:24:56.917Z,4.07
2017-08-02T10:27:37.348Z,3.50
2017-08-02T10:30:07.399Z,3.58
2017-08-02T10:32:49.503Z,4.00
2017-08-02T10:35:19.683Z,3.40
2017-08-02T10:37:49.279Z,3.83
2017-08-02T10:40:19.134Z,3.75
2017-08-02T10:42:48.839Z,3.62
2017-08-02T10:45:18.343Z,4.43
2017-08-02T10:47:48.092Z,4.50
2017-08-02T10:50:18.528Z,4.10
2017-08-02T10:52:48.583Z,4.85
2017-08-02T10:55:18.666Z,4.30
2017-08-02T10:57:48.248Z,4.23
2017-08-02T11:00:17.875Z,4.32
2017-08-02T11:02:47.514Z,3.90
2017-08-02T11:05:18.140Z,4.40
2017-08-02T11:08:00.582Z,4.07
2017-08-02T11:10:30.451Z,5.07
2017-08-02T11:13:01.559Z,4.50
2017-08-02T11:15:31.256Z,5.50
2017-08-02T11:18:01.560Z,5.10
2017-08-02T11:20:31.813Z,4.70
2017-08-02T11:23:01.484Z,4.70
2017-08-02T11:25:32.376Z,5.20
2017-08-02T11:28:04.850Z,5.15
2017-08-02T11:30:34.847Z,5.30
2017-08-02T11:33:04.788Z,5.67
2017-08-02T11:35:34.578Z,6.12
2017-08-02T11:38:14.606Z,5.37
2017-08-02T11:40:44.319Z,5.80
2017-08-02T11:43:20.222Z,5.78
2017-08-02T11:45:50.734Z,5.50
2017-08-02T11:48:20.299Z,5.70
2017-08-02T11:50:50.651Z,5.53
2017-08-02T11:53:27.023Z,4.90
2017-08-02T11:55:57.813Z,5.30
2017-08-02T11:58:27.522Z,6.03
2017-08-02T12:00:57.632Z,5.85
2017-08-02T12:03:29.634Z,6.05
2017-08-02T12:05:59.372Z,5.85
2017-08-02T12:08:29.903Z,6.18
2017-08-02T12:10:59.802Z,5.90
2017-08-02T12:13:29.710Z,6.20
2017-08-02T12:15:59.240Z,5.80
2017-08-02T12:18:28.796Z,6.20
2017-08-02T12:20:58.435Z,6.32
2017-08-02T12:23:28.802Z,6.20
2017-08-02T12:26:00.759Z,5.60
2017-08-02T12:28:30.405Z,5.60
2017-08-02T12:30:59.963Z,5.82
2017-08-02T12:33:30.083Z,5.93
2017-08-02T12:35:59.842Z,6.45
2017-08-02T12:38:29.740Z,6.03
2017-08-02T12:40:59.282Z,5.90
2017-08-02T12:43:28.789Z,6.05
2017-08-02T12:45:58.495Z,5.82
2017-08-02T12:48:28.210Z,5.82
2017-08-02T12:51:13.198Z,5.55
2017-08-02T12:53:43.346Z,5.80
2017-08-02T12:56:13.167Z,5.80
2017-08-02T12:58:42.955Z,6.30
2017-08-02T13:01:13.211Z,6.12
2017-08-02T13:03:43.110Z,6.10
2017-08-02T13:06:12.654Z,6.03
2017-08-02T13:08:42.227Z,5.62
2017-08-02T13:11:12.022Z,5.60
2017-08-02T13:13:41.572Z,5.70
2017-08-02T13:16:11.338Z,6.03
2017-08-02T13:18:56.427Z,6.35
2017-08-02T13:21:26.347Z,6.35
2017-08-02T13:23:56.386Z,5.50
2017-08-02T13:26:26.551Z,5.00
2017-08-02T13:28:56.423Z,5.37
2017-08-02T13:31:27.150Z,5.20
2017-08-02T13:33:59.291Z,5.10
2017-08-02T13:36:28.887Z,5.10
2017-08-02T13:38:58.739Z,5.47
2017-08-02T13:41:28.288Z,4.50
2017-08-02T13:43:57.895Z,3.60
2017-08-02T13:46:28.456Z,3.25
2017-08-02T13:48:58.108Z,2.75
2017-08-02T13:52:38.418Z,3.25
2017-08-02T13:55:10.258Z,3.90
2017-08-02T13:57:40.119Z,3.10
2017-08-02T14:00:09.962Z,3.60
2017-08-02T14:02:39.656Z,3.50
2017-08-02T14:05:09.215Z,3.60
2017-08-02T14:07:39.688Z,3.72
2017-08-02T14:10:09.315Z,3.83
2017-08-02T14:12:38.809Z,3.37
2017-08-02T14:15:08.373Z,3.70
2017-08-02T14:17:38.005Z,3.72
2017-08-02T14:20:07.821Z,3.25
2017-08-02T14:22:37.463Z,3.37
2017-08-02T14:25:07.086Z,2.95
2017-08-02T14:27:36.651Z,3.30
2017-08-02T14:30:06.296Z,2.90
2017-08-02T14:32:36.224Z,3.12
2017-08-02T14:35:07.235Z,3.37
2017-08-02T14:37:38.867Z,3.12
2017-08-02T14:40:10.290Z,3.20
2017-08-02T14:42:41.346Z,3.00
2017-08-02T14:45:12.426Z,4.40
2017-08-02T14:47:44.142Z,2.85
2017-08-02T14:50:16.128Z,3.15
2017-08-02T14:52:47.450Z,3.50
2017-08-02T14:55:17.978Z,3.00
2017-08-02T14:57:50.114Z,3.20
2017-08-02T15:00:21.256Z,3.25
2017-08-02T15:02:52.565Z,3.80
2017-08-02T15:05:22.978Z,2.80
2017-08-02T15:07:53.802Z,3.00
2017-08-02T15:10:24.787Z,3.00
2017-08-02T15:12:55.669Z,2.87
2017-08-02T15:15:26.347Z,2.80
2017-08-02T15:17:56.910Z,3.17
2017-08-02T15:20:27.912Z,3.00
2017-08-02T15:22:57.775Z,3.80
2017-08-02T15:25:28.700Z,3.78
2017-08-02T15:27:58.291Z,3.20
2017-08-02T15:30:29.887Z,3.95
2017-08-02T15:33:01.288Z,3.30
2017-08-02T15:35:30.940Z,3.60
2017-08-02T15:38:00.643Z,4.75
2017-08-02T15:40:31.982Z,3.80
2017-08-02T15:43:01.565Z,3.17
2017-08-02T15:45:31.320Z,2.70
2017-08-02T15:48:00.908Z,2.90
2017-08-02T15:50:30.518Z,2.90
2017-08-02T15:53:00.299Z,3.17
2017-08-02T15:55:30.624Z,3.40
2017-08-02T15:58:00.273Z,3.15
2017-08-02T16:00:29.782Z,3.20
2017-08-02T16:02:59.599Z,3.05
2017-08-02T16:05:29.432Z,2.83
2017-08-02T16:07:59.006Z,3.00
2017-08-02T16:10:28.534Z,3.73
2017-08-02T16:12:58.420Z,3.10
2017-08-02T16:15:28.207Z,2.97
2017-08-02T16:17:58.292Z,4.40
2017-08-02T16:20:28.212Z,3.90
2017-08-02T16:22:57.823Z,4.50
2017-08-02T16:25:27.887Z,4.57
2017-08-02T16:27:57.527Z,4.05
2017-08-02T16:30:27.107Z,4.80
2017-08-02T16:32:56.917Z,4.63
2017-08-02T16:35:26.470Z,3.47
2017-08-02T16:37:56.035Z,4.15
2017-08-02T16:40:25.826Z,3.97
2017-08-02T16:42:55.358Z,4.40
2017-08-02T16:45:24.900Z,4.13
2017-08-02T16:47:54.507Z,4.10
2017-08-02T16:50:24.114Z,3.55
2017-08-02T16:52:53.625Z,3.13
2017-08-02T16:55:23.494Z,3.35
2017-08-02T16:57:53.358Z,2.75
2017-08-02T17:00:22.875Z,2.97
2017-08-02T17:02:52.847Z,2.97
2017-08-02T17:05:22.481Z,3.00
2017-08-02T17:07:52.011Z,3.20
2017-08-02T17:10:21.840Z,3.00
2017-08-02T17:12:51.655Z,3.10
2017-08-02T17:15:21.710Z,3.20
2017-08-02T17:17:51.812Z,3.50
2017-08-02T17:20:22.549Z,3.10
2017-08-02T17:22:53.302Z,3.00
2017-08-02T17:25:22.822Z,3.10
2017-08-02T17:27:52.521Z,3.72
2017-08-02T17:30:28.588Z,3.20
2017-08-02T17:32:58.878Z,3.25
2017-08-02T17:35:28.467Z,3.22
2017-08-02T17:37:58.581Z,3.50
2017-08-02T17:40:28.266Z,3.00
2017-08-02T17:42:57.854Z,2.85
2017-08-02T17:45:27.690Z,2.90
2017-08-02T17:47:58.007Z,3.15
2017-08-02T17:50:27.826Z,3.50
2017-08-02T17:52:57.508Z,3.87
2017-08-02T17:55:27.242Z,3.22
2017-08-02T17:57:57.162Z,3.33
2017-08-02T18:00:27.376Z,3.50
2017-08-02T18:02:57.190Z,3.53
2017-08-02T18:05:27.550Z,3.90
2017-08-02T18:07:57.579Z,3.40
2017-08-02T18:10:27.499Z,3.20
2017-08-02T18:12:57.051Z,3.22
2017-08-02T18:15:26.572Z,3.10
2017-08-02T18:17:56.119Z,2.95
2017-08-02T18:20:25.730Z,3.40
2017-08-02T18:22:55.622Z,3.22
2017-08-02T18:25:25.128Z,3.40
2017-08-02T18:27:54.655Z,3.30
2017-08-02T18:30:24.391Z,3.37
2017-08-02T18:32:53.907Z,3.97
2017-08-02T18:35:23.693Z,3.40
2017-08-02T18:37:53.665Z,3.55
2017-08-02T18:40:23.375Z,4.10
2017-08-02T18:42:54.226Z,3.97
2017-08-02T18:45:24.509Z,3.25
2017-08-02T18:47:54.799Z,4.40
2017-08-02T18:50:25.371Z,4.45
2017-08-02T18:52:55.498Z,4.00
2017-08-02T18:55:26.524Z,3.40
2017-08-02T18:57:56.159Z,3.20
2017-08-02T19:00:26.774Z,4.07
2017-08-02T19:02:56.698Z,4.12
2017-08-02T19:05:26.287Z,3.70
2017-08-02T19:07:56.185Z,3.65
2017-08-02T19:10:26.034Z,3.37
2017-08-02T19:12:55.546Z,3.53
2017-08-02T19:15:25.391Z,2.90
2017-08-02T19:17:55.259Z,3.37
2017-08-02T19:20:24.863Z,3.40
2017-08-02T19:22:54.420Z,3.30
2017-08-02T19:25:23.947Z,3.50
2017-08-02T19:27:53.770Z,3.53
2017-08-02T19:30:23.339Z,3.65
2017-08-02T19:32:53.392Z,3.70
2017-08-02T19:35:23.320Z,3.47
2017-08-02T19:37:52.847Z,3.35
2017-08-02T19:40:22.416Z,3.20
2017-08-02T19:42:51.945Z,3.58
2017-08-02T19:45:21.495Z,3.60
2017-08-02T19:47:51.444Z,3.60
2017-08-02T19:50:21.175Z,3.78
2017-08-02T19:52:50.824Z,3.40
2017-08-02T19:55:20.682Z,3.53
2017-08-02T19:57:50.227Z,3.55
2017-08-02T20:00:20.079Z,3.40
2017-08-02T20:02:49.908Z,3.85
2017-08-02T20:05:19.893Z,3.80
2017-08-02T20:10:44.987Z,4.05
2017-08-02T20:13:14.680Z,3.90
2017-08-02T20:15:45.141Z,3.60
2017-08-02T20:18:15.086Z,3.60
2017-08-02T20:20:44.661Z,3.60
2017-08-02T20:23:14.311Z,3.97
2017-08-02T20:25:44.357Z,3.67
2017-08-02T20:28:14.218Z,3.50
2017-08-02T20:30:43.772Z,3.30
2017-08-02T20:33:13.304Z,3.87
2017-08-02T20:35:42.868Z,3.73
2017-08-02T20:38:12.439Z,3.40
2017-08-02T20:40:42.247Z,3.90
2017-08-02T20:43:11.802Z,3.87
2017-08-02T20:45:41.555Z,3.53
2017-08-02T20:48:12.002Z,4.22
2017-08-02T20:50:41.523Z,3.58
2017-08-02T20:53:11.062Z,3.62
2017-08-02T20:55:41.787Z,3.80
2017-08-02T20:58:11.347Z,3.67
2017-08-02T21:00:40.911Z,4.15
2017-08-02T21:03:11.439Z,3.80
2017-08-02T21:05:41.000Z,4.00
2017-08-02T21:08:10.850Z,3.58
2017-08-02T21:10:40.441Z,4.00
2017-08-02T21:13:10.202Z,3.83
2017-08-02T21:15:40.027Z,3.70
2017-08-02T21:18:09.615Z,3.80
2017-08-02T21:20:39.284Z,3.90
2017-08-02T21:23:08.823Z,3.60
2017-08-02T21:25:38.327Z,4.00
2017-08-02T21:28:08.165Z,4.10
2017-08-02T21:30:37.724Z,4.00
2017-08-02T21:33:07.233Z,3.60
2017-08-02T21:35:36.744Z,3.87
2017-08-02T21:38:06.236Z,4.30
2017-08-02T21:40:36.847Z,3.97
2017-08-02T21:43:06.602Z,3.75
2017-08-02T21:45:36.107Z,4.00
2017-08-02T21:48:05.942Z,3.85
2017-08-02T21:50:35.438Z,4.10
2017-08-02T21:53:04.964Z,4.70
2017-08-02T21:55:34.595Z,4.22
2017-08-02T21:58:04.175Z,4.12
2017-08-02T22:00:35.914Z,4.60
2017-08-02T22:03:05.490Z,4.18
2017-08-02T22:05:35.046Z,4.57
2017-08-02T22:08:05.568Z,4.40
2017-08-02T22:10:35.402Z,4.20
2017-08-02T22:13:05.733Z,3.80
2017-08-02T22:15:36.088Z,3.90
2017-08-02T22:18:05.690Z,4.22
2017-08-02T22:20:35.567Z,4.37
2017-08-02T22:23:05.079Z,3.60
2017-08-02T22:25:34.603Z,3.90
2017-08-02T22:28:07.859Z,4.35
2017-08-02T22:30:37.682Z,3.90
2017-08-02T22:33:07.530Z,4.07
2017-08-02T22:35:37.143Z,4.03
2017-08-02T22:38:07.245Z,4.78
2017-08-02T22:40:38.936Z,4.10
2017-08-02T22:43:09.056Z,4.10
2017-08-02T22:45:38.792Z,4.43
2017-08-02T22:48:08.939Z,3.70
2017-08-02T22:50:38.491Z,4.27
2017-08-02T22:53:08.815Z,4.10
2017-08-02T22:55:38.859Z,4.28
2017-08-02T22:58:08.321Z,4.20
2017-08-02T23:00:38.130Z,4.17
2017-08-02T23:03:07.703Z,4.20
2017-08-02T23:05:37.207Z,4.75
2017-08-02T23:08:06.766Z,4.20
2017-08-02T23:10:36.305Z,3.70
2017-08-02T23:13:06.559Z,3.72
2017-08-02T23:15:36.182Z,4.32
2017-08-02T23:18:05.739Z,4.20
2017-08-02T23:20:35.281Z,4.00
2017-08-02T23:23:04.826Z,4.20
2017-08-02T23:25:34.624Z,4.28
2017-08-02T23:28:04.208Z,4.97
2017-08-02T23:30:33.927Z,4.05
2017-08-02T23:33:03.935Z,3.80
2017-08-02T23:35:34.623Z,4.20
2017-08-02T23:38:04.150Z,4.00
2017-08-02T23:40:34.268Z,4.10
2017-08-02T23:43:04.386Z,4.10
2017-08-02T23:45:34.803Z,4.60
2017-08-02T23:48:04.700Z,4.25
2017-08-02T23:50:35.194Z,4.20
2017-08-02T23:53:05.599Z,3.60
2017-08-02T23:55:35.499Z,4.25
2017-08-02T23:58:05.316Z,4.43
